| time (UTC) | temp F | wind direction | speed knots | gust knots | rain 1hr in | rain 24hr in | rain mn in | humidity % | barometer mb |
| 20260503223015 | 65 | 70 | 1.7 | 12.2 | 0.00 | 0.00 | 0.00 | 39 | 1018.8 |
| 20260503221514 | 65 | 25 | 0.9 | 7.0 | 0.00 | 0.00 | 0.00 | 39 | 1019.0 |
| 20260503220012 | 64 | 105 | 0.0 | 7.8 | 0.00 | 0.00 | 0.00 | 39 | 1019.1 |
| 20260503214511 | 63 | 92 | 2.6 | 13.0 | 0.00 | 0.00 | 0.00 | 36 | 1019.2 |
| 20260503213012 | 64 | 61 | 4.3 | 10.4 | 0.00 | 0.00 | 0.00 | 38 | 1019.3 |
| 20260503211509 | 65 | 17 | 0.9 | 10.4 | 0.00 | 0.00 | 0.00 | 39 | 1019.5 |
| 20260503210008 | 66 | 105 | 0.0 | 7.8 | 0.00 | 0.00 | 0.00 | 38 | 1019.4 |
| 20260503204507 | 63 | 64 | 7.0 | 11.3 | 0.00 | 0.00 | 0.00 | 37 | 1019.9 |
| 20260503203012 | 64 | 51 | 4.3 | 8.7 | 0.00 | 0.00 | 0.00 | 35 | 1020.1 |
| 20260503201506 | 65 | 106 | 3.5 | 8.7 | 0.00 | 0.00 | 0.00 | 35 | 1020.3 |
| 20260503200008 | 63 | 134 | 0.0 | 6.1 | 0.00 | 0.00 | 0.00 | 38 | 1020.7 |
| 20260503194505 | 63 | 233 | 0.9 | 8.7 | 0.00 | 0.00 | 0.00 | 35 | 1020.8 |
| 20260503193002 | 62 | 150 | 1.7 | 7.0 | 0.00 | 0.00 | 0.00 | 37 | 1021.0 |
| 20260503191502 | 64 | 56 | 0.9 | 4.3 | 0.00 | 0.00 | 0.00 | 38 | 1021.2 |
| 20260503190001 | 65 | 205 | 2.6 | 7.8 | 0.00 | 0.00 | 0.00 | 36 | 1021.4 |
| 20260503184559 | 61 | 49 | 3.5 | 7.8 | 0.00 | 0.00 | 0.00 | 38 | 1021.5 |
| 20260503183116 | 61 | 15 | 1.7 | 6.1 | 0.00 | 0.00 | 0.00 | 40 | 1021.6 |
| 20260503181622 | 61 | 79 | 3.5 | 11.3 | 0.00 | 0.00 | 0.00 | 39 | 1021.9 |
| 20260503180105 | 61 | 106 | 0.0 | 4.3 | 0.00 | 0.00 | 0.00 | 40 | 1022.1 |
| 20260503174557 | 60 | 134 | 0.9 | 7.0 | 0.00 | 0.00 | 0.00 | 38 | 1022.2 |
| 20260503173100 | 61 | 79 | 0.9 | 6.1 | 0.00 | 0.00 | 0.00 | 36 | 1022.4 |
| 20260503171557 | 60 | 133 | 0.0 | 6.1 | 0.00 | 0.00 | 0.00 | 40 | 1022.6 |
| 20260503090105 | 44 | 135 | 0.9 | 3.5 | 0.00 | 0.00 | 0.00 | 76 | 1021.4 |
| 20260503081549 | 45 | 119 | 0.9 | 7.0 | 0.00 | 0.00 | 0.00 | 76 | 1021.0 |
| 20260503071538 | 46 | 122 | 0.9 | 2.6 | 0.00 | 0.00 | 0.00 | 75 | 1020.3 |
| 20260503054535 | 48 | 111 | 0.0 | 4.3 | 0.00 | 0.00 | 0.00 | 70 | 1020.0 |
| 20260503053022 | 48 | 129 | 0.9 | 6.1 | 0.00 | 0.00 | 0.00 | 69 | 1019.8 |
| 20260503051526 | 48 | 153 | 1.7 | 6.1 | 0.00 | 0.00 | 0.00 | 69 | 1019.9 |
| 20260503050021 | 48 | 116 | 0.0 | 2.6 | 0.00 | 0.00 | 0.00 | 70 | 1020.0 |
| 20260503044526 | 49 | 118 | 0.0 | 0.0 | 0.00 | 0.00 | 0.00 | 67 | 1019.8 |
| 20260503043013 | 49 | 118 | 0.9 | 1.7 | 0.00 | 0.00 | 0.00 | 67 | 1019.8 |
| 20260503041509 | 50 | 131 | 0.0 | 3.5 | 0.00 | 0.00 | 0.00 | 67 | 1019.5 |
| 20260503040005 | 50 | 129 | 0.0 | 3.5 | 0.00 | 0.00 | 0.00 | 66 | 1019.4 |
| 20260503034502 | 50 | 124 | 0.9 | 5.2 | 0.00 | 0.00 | 0.00 | 65 | 1019.4 |
| 20260503033059 | 50 | 124 | 0.0 | 5.2 | 0.00 | 0.00 | 0.00 | 65 | 1019.4 |
| 20260503031557 | 51 | 82 | 2.6 | 10.4 | 0.00 | 0.00 | 0.00 | 63 | 1019.4 |
| 20260503030053 | 51 | 120 | 4.3 | 10.4 | 0.00 | 0.00 | 0.00 | 62 | 1019.3 |
| 20260503024544 | 51 | 127 | 2.6 | 6.1 | 0.00 | 0.00 | 0.00 | 63 | 1019.1 |
| 20260503023038 | 51 | 110 | 1.7 | 7.8 | 0.00 | 0.00 | 0.00 | 62 | 1019.0 |
| 20260503021534 | 51 | 136 | 2.6 | 7.0 | 0.00 | 0.00 | 0.00 | 61 | 1018.8 |
| 20260503020029 | 51 | 114 | 1.7 | 5.2 | 0.00 | 0.00 | 0.00 | 60 | 1018.7 |
| 20260503014525 | 51 | 114 | 0.9 | 7.0 | 0.00 | 0.00 | 0.00 | 59 | 1018.5 |
| 20260503013020 | 52 | 119 | 2.6 | 7.0 | 0.00 | 0.00 | 0.00 | 57 | 1018.3 |
| 20260503011515 | 53 | 96 | 1.7 | 6.1 | 0.00 | 0.00 | 0.00 | 57 | 1018.1 |
| 20260503010012 | 53 | 139 | 1.7 | 7.0 | 0.00 | 0.00 | 0.00 | 55 | 1017.9 |
| 20260503004506 | 53 | 164 | 0.9 | 6.1 | 0.00 | 0.00 | 0.00 | 55 | 1017.7 |
| 20260503003001 | 54 | 123 | 1.7 | 5.2 | 0.00 | 0.00 | 0.00 | 53 | 1017.6 |
| 20260503001601 | 55 | 148 | 2.6 | 7.0 | 0.00 | 0.00 | 0.00 | 51 | 1017.2 |
| 20260503000057 | 56 | 132 | 1.7 | 7.8 | 0.00 | 0.00 | 0.00 | 50 | 1017.0 |
| 20260502234549 | 57 | 135 | 2.6 | 7.8 | 0.00 | 0.00 | 0.00 | 48 | 1016.8 |
| 20260502233044 | 58 | 145 | 5.2 | 9.6 | 0.00 | 0.00 | 0.00 | 46 | 1016.7 |
| 20260502231538 | 59 | 155 | 1.7 | 9.6 | 0.00 | 0.00 | 0.00 | 44 | 1016.6 |
| 20260502230034 | 58 | 87 | 1.7 | 9.6 | 0.00 | 0.00 | 0.00 | 44 | 1016.6 |
| 20260502224530 | 58 | 119 | 2.6 | 11.3 | 0.00 | 0.00 | 0.00 | 44 | 1016.6 |